Time;durP1;ratioP1;P1;durP2;ratioP2;P2;SDS_P1;SDS_P2;PMS_P1;PMS_P2;Temp;Humidity;BMP_temperature;BMP_pressure;BME280_temperature;BME280_humidity;BME280_pressure;Samples;Min_cycle;Max_cycle;Signal;HPM_P1;HPM_P2
2023/05/11 00:00:05;;;;;;;1.05;0.60;;;13.60;99.90;;;;;;5097452;28;20048;-83
2023/05/11 00:02:30;;;;;;;0.98;0.50;;;13.50;99.90;;;;;;5095317;28;20091;-82
2023/05/11 00:04:56;;;;;;;1.85;0.50;;;13.50;99.90;;;;;;5104065;28;20063;-81
2023/05/11 00:07:22;;;;;;;0.57;0.30;;;13.50;99.90;;;;;;5096447;28;20456;-81
2023/05/11 00:09:47;;;;;;;0.88;0.30;;;13.50;99.90;;;;;;5097490;28;20067;-81
2023/05/11 00:12:13;;;;;;;0.88;0.30;;;13.50;99.90;;;;;;5096242;28;20059;-81
2023/05/11 00:14:39;;;;;;;1.70;0.47;;;13.50;99.90;;;;;;5096508;28;20429;-82
2023/05/11 00:17:05;;;;;;;4.15;0.50;;;13.50;99.90;;;;;;5096625;28;20024;-81
2023/05/11 00:19:30;;;;;;;1.58;0.40;;;13.50;99.90;;;;;;5096083;28;20107;-81
2023/05/11 00:21:57;;;;;;;0.47;0.43;;;13.60;99.90;;;;;;5095525;28;20028;-82
2023/05/11 00:24:23;;;;;;;1.00;0.52;;;13.50;99.90;;;;;;5096796;28;20060;-82
2023/05/11 00:26:49;;;;;;;0.40;0.40;;;13.50;99.90;;;;;;5095365;28;20047;-82
2023/05/11 00:29:14;;;;;;;2.85;0.40;;;13.40;99.90;;;;;;5095990;28;20464;-81
2023/05/11 00:31:40;;;;;;;1.67;0.65;;;13.40;99.90;;;;;;5096967;28;20165;-81
2023/05/11 00:34:06;;;;;;;0.95;0.43;;;13.40;99.90;;;;;;5096676;28;20023;-82
2023/05/11 00:36:32;;;;;;;0.70;0.50;;;13.40;99.90;;;;;;5095779;28;20027;-81
2023/05/11 00:38:58;;;;;;;1.10;0.50;;;13.40;99.90;;;;;;5094943;28;20024;-82
2023/05/11 00:41:24;;;;;;;1.65;0.43;;;13.40;99.90;;;;;;5095604;28;20389;-81
2023/05/11 00:43:49;;;;;;;0.60;0.50;;;13.40;99.90;;;;;;5095298;28;20077;-82
2023/05/11 00:46:16;;;;;;;1.17;0.40;;;13.30;99.90;;;;;;5096416;28;20031;-81
2023/05/11 00:48:42;;;;;;;1.77;0.50;;;13.30;99.90;;;;;;5095958;28;20031;-83
2023/05/11 00:51:08;;;;;;;1.40;0.50;;;13.30;99.90;;;;;;5096478;28;20039;-82
2023/05/11 00:53:34;;;;;;;0.95;0.45;;;13.30;99.90;;;;;;5095501;28;20028;-82
2023/05/11 00:56:00;;;;;;;1.60;0.52;;;13.30;99.90;;;;;;5094709;28;20101;-83
2023/05/11 00:58:26;;;;;;;0.98;0.50;;;13.30;99.90;;;;;;5096842;28;20483;-84
2023/05/11 01:00:51;;;;;;;1.55;0.45;;;13.20;99.90;;;;;;5095246;28;20024;-83
2023/05/11 01:03:17;;;;;;;1.40;0.35;;;13.20;99.90;;;;;;5096083;28;20028;-83
2023/05/11 01:06:00;;;;;;;0.20;0.20;;;13.20;99.90;;;;;;5095974;28;20538;-83
2023/05/11 01:08:42;;;;;;;0.95;0.40;;;13.20;99.90;;;;;;5096767;28;20032;-83
2023/05/11 01:11:21;;;;;;;2.72;0.50;;;13.20;99.90;;;;;;5095695;28;20653;-82
2023/05/11 01:13:55;;;;;;;1.67;0.43;;;13.20;99.90;;;;;;5094919;28;20024;-82
2023/05/11 01:16:23;;;;;;;2.92;0.50;;;13.20;99.90;;;;;;5096362;28;20109;-80
2023/05/11 01:18:57;;;;;;;1.25;0.75;;;13.20;99.90;;;;;;5094774;28;20426;-81
2023/05/11 01:21:22;;;;;;;0.90;0.50;;;13.10;99.90;;;;;;5096472;28;20058;-82
2023/05/11 01:23:51;;;;;;;0.85;0.50;;;13.10;99.90;;;;;;5094996;28;20024;-82
2023/05/11 01:26:32;;;;;;;2.38;0.40;;;13.20;99.90;;;;;;5094951;28;20059;-81
2023/05/11 01:29:28;;;;;;;4.47;0.40;;;13.10;99.90;;;;;;5094504;28;20103;-81
2023/05/11 01:31:55;;;;;;;0.45;0.40;;;13.10;99.90;;;;;;5095414;28;20020;-82
2023/05/11 01:34:29;;;;;;;1.60;0.55;;;13.10;99.90;;;;;;5095718;28;20028;-81
2023/05/11 01:37:04;;;;;;;0.80;0.60;;;13.20;99.90;;;;;;5095527;28;20035;-82
2023/05/11 01:39:36;;;;;;;0.88;0.40;;;13.20;99.90;;;;;;5095314;28;20600;-82
2023/05/11 01:42:27;;;;;;;0.55;0.32;;;13.20;99.90;;;;;;5095309;28;20039;-80
2023/05/11 01:44:56;;;;;;;0.73;0.40;;;13.20;99.90;;;;;;5094195;28;20060;-81
2023/05/11 01:47:24;;;;;;;1.83;0.40;;;13.20;99.90;;;;;;5095780;28;20024;-82
2023/05/11 01:49:51;;;;;;;1.00;0.40;;;13.10;99.90;;;;;;5095813;28;20115;-81
2023/05/11 01:52:19;;;;;;;1.70;0.40;;;13.10;99.90;;;;;;5094444;28;20024;-82
2023/05/11 01:54:47;;;;;;;0.50;0.50;;;13.00;99.90;;;;;;5094202;28;20039;-82
2023/05/11 01:57:15;;;;;;;0.70;0.40;;;13.00;99.90;;;;;;5094008;28;20031;-81
2023/05/11 01:59:42;;;;;;;0.45;0.40;;;13.00;99.90;;;;;;5094290;28;20115;-82
2023/05/11 02:02:11;;;;;;;0.80;0.40;;;13.10;99.90;;;;;;5094309;28;20028;-81
2023/05/11 02:04:38;;;;;;;0.73;0.55;;;13.10;99.90;;;;;;5095259;28;20435;-82
2023/05/11 02:07:07;;;;;;;6.75;2.30;;;13.00;99.90;;;;;;5093992;28;20183;-82
2023/05/11 02:09:33;;;;;;;0.55;0.30;;;13.00;99.90;;;;;;5095633;28;20028;-82
2023/05/11 02:12:01;;;;;;;1.75;0.47;;;13.10;99.90;;;;;;5093667;28;20077;-82
2023/05/11 02:14:28;;;;;;;1.20;0.55;;;13.10;99.90;;;;;;5093895;28;20032;-80
2023/05/11 02:16:56;;;;;;;2.17;0.50;;;13.10;99.90;;;;;;5093589;28;20028;-82
2023/05/11 02:19:21;;;;;;;3.33;0.82;;;13.00;99.90;;;;;;5094161;28;20051;-81
2023/05/11 02:21:48;;;;;;;0.43;0.40;;;13.00;99.90;;;;;;5093875;28;20070;-81
2023/05/11 02:24:15;;;;;;;0.65;0.30;;;12.90;99.90;;;;;;5093210;28;20074;-80
2023/05/11 02:26:41;;;;;;;0.90;0.43;;;13.00;99.90;;;;;;5093667;28;20052;-81
2023/05/11 02:29:07;;;;;;;0.68;0.40;;;13.00;99.90;;;;;;5093428;28;20032;-81
2023/05/11 02:31:37;;;;;;;0.73;0.40;;;12.90;99.90;;;;;;5094901;28;20085;-81
2023/05/11 02:34:19;;;;;;;2.10;0.50;;;12.90;99.90;;;;;;5093968;28;20028;-81
2023/05/11 02:36:52;;;;;;;2.00;0.50;;;12.90;99.90;;;;;;5093575;28;20073;-81
2023/05/11 02:39:22;;;;;;;0.98;0.55;;;12.90;99.90;;;;;;5093132;28;20052;-82
2023/05/11 02:41:56;;;;;;;1.05;0.43;;;12.90;99.90;;;;;;5093871;28;20119;-81
2023/05/11 02:44:23;;;;;;;1.75;0.60;;;12.90;99.90;;;;;;5093417;28;20101;-80
2023/05/11 02:46:51;;;;;;;1.15;0.50;;;12.90;99.90;;;;;;5093213;28;20028;-80
2023/05/11 02:49:21;;;;;;;1.00;0.65;;;13.00;99.90;;;;;;5094021;28;20096;-80
2023/05/11 02:51:47;;;;;;;1.52;0.47;;;13.00;99.90;;;;;;5095686;28;20056;-80
2023/05/11 02:54:14;;;;;;;0.88;0.50;;;13.00;99.90;;;;;;5093708;28;20031;-82
2023/05/11 02:56:40;;;;;;;1.90;0.50;;;12.90;99.90;;;;;;5093354;28;20020;-82
2023/05/11 02:59:06;;;;;;;1.45;0.65;;;12.90;99.90;;;;;;5092728;28;20030;-82
2023/05/11 03:01:32;;;;;;;1.63;0.50;;;12.90;99.90;;;;;;5092914;28;20024;-80
2023/05/11 03:03:58;;;;;;;0.90;0.50;;;12.90;99.90;;;;;;5093275;28;20103;-80
2023/05/11 03:06:24;;;;;;;0.98;0.57;;;12.90;99.90;;;;;;5092738;28;20059;-81
2023/05/11 03:08:50;;;;;;;1.15;0.80;;;12.90;99.90;;;;;;5092580;28;20059;-81
2023/05/11 03:11:17;;;;;;;1.27;0.50;;;12.90;99.90;;;;;;5092469;28;20059;-81
2023/05/11 03:13:44;;;;;;;1.65;0.65;;;12.90;99.90;;;;;;5092123;28;20032;-82
2023/05/11 03:16:12;;;;;;;3.03;0.77;;;12.90;99.90;;;;;;5092430;28;20034;-81
2023/05/11 03:18:38;;;;;;;1.85;0.68;;;12.80;99.90;;;;;;5092819;28;20381;-82
2023/05/11 03:21:05;;;;;;;1.58;0.60;;;12.80;99.90;;;;;;5092478;28;20040;-81
2023/05/11 03:23:33;;;;;;;1.67;0.80;;;12.80;99.90;;;;;;5092633;28;20549;-82
2023/05/11 03:26:00;;;;;;;1.65;0.55;;;12.80;99.90;;;;;;5092342;28;20032;-82
2023/05/11 03:28:26;;;;;;;0.82;0.60;;;12.80;99.90;;;;;;5092068;28;20028;-81
2023/05/11 03:30:53;;;;;;;0.82;0.60;;;12.80;99.90;;;;;;5088877;28;20032;-81
2023/05/11 03:33:19;;;;;;;0.95;0.70;;;12.80;99.90;;;;;;5093087;28;20027;-82
2023/05/11 03:35:48;;;;;;;1.00;0.75;;;12.80;99.90;;;;;;5092350;28;20024;-81
2023/05/11 03:38:15;;;;;;;3.28;0.68;;;12.80;99.90;;;;;;5091873;28;20028;-81
2023/05/11 03:40:42;;;;;;;1.58;1.00;;;12.80;99.90;;;;;;5091854;28;20075;-82
2023/05/11 03:43:14;;;;;;;1.30;0.80;;;12.70;99.90;;;;;;5092734;28;20499;-82
2023/05/11 03:45:42;;;;;;;4.05;0.85;;;12.80;99.90;;;;;;5092569;28;20032;-82
2023/05/11 03:48:08;;;;;;;2.80;0.95;;;12.80;99.90;;;;;;5092045;28;20032;-81
2023/05/11 03:50:35;;;;;;;1.30;1.20;;;12.70;99.90;;;;;;5092184;28;20471;-81
2023/05/11 03:53:01;;;;;;;1.17;0.77;;;12.60;99.90;;;;;;5091457;28;20111;-81
2023/05/11 03:55:27;;;;;;;2.22;1.00;;;12.60;99.90;;;;;;5092794;28;20123;-81
2023/05/11 03:57:52;;;;;;;3.33;0.80;;;12.70;99.90;;;;;;5096586;28;20047;-81
2023/05/11 04:00:18;;;;;;;1.08;0.80;;;12.60;99.90;;;;;;5098476;28;20351;-81
2023/05/11 04:02:44;;;;;;;2.22;1.08;;;12.60;99.90;;;;;;5092620;28;20651;-80
2023/05/11 04:05:10;;;;;;;1.00;0.70;;;12.60;99.90;;;;;;5092840;28;20496;-81
2023/05/11 04:07:37;;;;;;;6.80;1.08;;;12.60;99.90;;;;;;5093202;28;20111;-81
2023/05/11 04:10:05;;;;;;;1.17;0.80;;;12.60;99.90;;;;;;5093262;28;20032;-82
2023/05/11 04:12:31;;;;;;;4.15;0.98;;;12.60;99.90;;;;;;5093910;28;20063;-80
2023/05/11 04:14:56;;;;;;;1.63;0.70;;;12.60;99.90;;;;;;5092239;28;20119;-81
2023/05/11 04:17:22;;;;;;;11.93;1.20;;;12.50;99.90;;;;;;5093292;28;20027;-81
2023/05/11 04:19:48;;;;;;;1.15;0.70;;;12.50;99.90;;;;;;5094196;28;20089;-81
2023/05/11 04:22:13;;;;;;;1.73;0.82;;;12.60;99.90;;;;;;5091771;28;20115;-81
2023/05/11 04:24:39;;;;;;;1.73;0.93;;;12.50;99.90;;;;;;5104288;28;20039;-81
2023/05/11 04:27:04;;;;;;;1.63;1.10;;;12.50;99.90;;;;;;5108737;28;20043;-81
2023/05/11 04:29:30;;;;;;;2.47;1.00;;;12.50;99.90;;;;;;5117281;28;20019;-82
2023/05/11 04:31:56;;;;;;;1.08;0.73;;;12.50;99.90;;;;;;5112642;28;20380;-82
2023/05/11 04:34:21;;;;;;;1.40;0.90;;;12.60;99.90;;;;;;5083442;28;20024;-83
2023/05/11 04:36:48;;;;;;;1.55;0.90;;;12.50;99.90;;;;;;5102332;28;20071;-83
2023/05/11 04:39:15;;;;;;;2.35;1.15;;;12.50;99.90;;;;;;5095684;28;20507;-83
2023/05/11 04:41:44;;;;;;;2.47;1.05;;;12.50;99.90;;;;;;5095719;28;20415;-83
2023/05/11 04:44:10;;;;;;;1.63;0.73;;;12.50;99.90;;;;;;5095298;28;20027;-82
2023/05/11 04:46:37;;;;;;;1.83;0.90;;;12.50;99.90;;;;;;5095430;28;20066;-82
2023/05/11 04:49:04;;;;;;;3.25;0.93;;;12.60;99.90;;;;;;5094910;28;20051;-83
2023/05/11 04:51:30;;;;;;;1.67;0.80;;;12.50;99.90;;;;;;5096570;28;20032;-82
2023/05/11 04:53:55;;;;;;;1.25;0.82;;;12.60;99.90;;;;;;5095540;28;20028;-83
2023/05/11 04:56:21;;;;;;;1.98;0.90;;;12.50;99.90;;;;;;5094667;28;20027;-82
2023/05/11 04:58:47;;;;;;;2.13;0.75;;;12.50;99.90;;;;;;5106614;28;20073;-82
2023/05/11 05:01:12;;;;;;;2.58;0.98;;;12.50;99.90;;;;;;5097245;28;20031;-82
2023/05/11 05:03:38;;;;;;;4.00;0.93;;;12.50;99.90;;;;;;5095173;28;20028;-83
2023/05/11 05:06:04;;;;;;;1.02;0.93;;;12.60;99.90;;;;;;5094403;28;20113;-82
2023/05/11 05:08:29;;;;;;;4.03;1.08;;;12.60;99.90;;;;;;5095152;28;20367;-82
2023/05/11 05:10:55;;;;;;;2.40;1.05;;;12.60;99.90;;;;;;5096033;28;20028;-82
2023/05/11 05:13:20;;;;;;;3.08;1.52;;;12.60;99.90;;;;;;5095463;28;20449;-82
2023/05/11 05:15:46;;;;;;;2.38;1.00;;;12.60;99.90;;;;;;5095808;28;20035;-82
2023/05/11 05:18:12;;;;;;;2.83;1.20;;;12.60;99.90;;;;;;5094171;28;20054;-83
2023/05/11 05:20:38;;;;;;;1.80;1.02;;;12.60;99.90;;;;;;5093871;28;20043;-82
2023/05/11 05:23:04;;;;;;;1.45;1.10;;;12.60;99.90;;;;;;5090773;28;20035;-82
2023/05/11 05:25:30;;;;;;;3.38;1.40;;;12.50;99.90;;;;;;5094249;28;20032;-82
2023/05/11 05:27:55;;;;;;;2.85;1.50;;;12.50;99.90;;;;;;5094117;28;20035;-82
2023/05/11 05:30:21;;;;;;;2.60;1.13;;;12.60;99.90;;;;;;5073899;28;20025;-84
2023/05/11 05:32:47;;;;;;;2.00;1.40;;;12.60;99.90;;;;;;5086700;28;20172;-82
2023/05/11 05:35:12;;;;;;;2.10;1.40;;;12.60;99.90;;;;;;5094665;28;20046;-83
2023/05/11 05:37:38;;;;;;;2.10;1.13;;;12.60;99.90;;;;;;5093209;28;20024;-82
2023/05/11 05:40:04;;;;;;;5.40;1.20;;;12.60;99.90;;;;;;5093338;28;20036;-82
2023/05/11 05:42:30;;;;;;;2.00;1.50;;;12.60;99.90;;;;;;5093566;28;20031;-82
2023/05/11 05:44:56;;;;;;;2.22;1.45;;;12.60;99.90;;;;;;5095471;28;20032;-83
2023/05/11 05:47:21;;;;;;;2.65;1.30;;;12.60;99.90;;;;;;5088185;28;20044;-81
2023/05/11 05:49:47;;;;;;;2.22;1.23;;;12.70;99.90;;;;;;5095162;28;20042;-81
2023/05/11 05:52:12;;;;;;;2.05;1.50;;;12.70;99.90;;;;;;5094611;28;20361;-82
2023/05/11 05:54:38;;;;;;;2.72;1.50;;;12.70;99.90;;;;;;5094165;28;20032;-82
2023/05/11 05:57:05;;;;;;;1.60;1.35;;;12.70;99.90;;;;;;5092945;28;20020;-81
2023/05/11 05:59:30;;;;;;;5.53;1.52;;;12.80;99.90;;;;;;5093793;28;20031;-82
2023/05/11 06:01:56;;;;;;;2.40;1.38;;;12.80;99.90;;;;;;5093859;28;20020;-83
2023/05/11 06:04:22;;;;;;;3.13;1.50;;;12.90;99.90;;;;;;5093341;28;20028;-83
2023/05/11 06:06:47;;;;;;;3.65;1.67;;;12.80;99.90;;;;;;5093888;28;20024;-83
2023/05/11 06:09:13;;;;;;;1.88;1.48;;;12.90;99.90;;;;;;5096994;28;20482;-81
2023/05/11 06:11:39;;;;;;;1.98;1.50;;;12.90;99.90;;;;;;5110813;28;20069;-81
2023/05/11 06:14:04;;;;;;;3.33;1.20;;;12.90;99.90;;;;;;5093524;28;20116;-80
2023/05/11 06:16:30;;;;;;;4.00;1.80;;;12.90;99.90;;;;;;5093548;28;20389;-83
2023/05/11 06:18:55;;;;;;;3.05;1.83;;;12.90;99.90;;;;;;5094964;28;20032;-82
2023/05/11 06:21:21;;;;;;;1.73;1.58;;;12.90;99.90;;;;;;5092650;28;20147;-82
2023/05/11 06:23:47;;;;;;;6.43;1.42;;;12.90;99.90;;;;;;5093070;28;20028;-82
2023/05/11 06:26:12;;;;;;;2.88;1.40;;;13.00;99.90;;;;;;5093345;28;20384;-82
2023/05/11 06:28:38;;;;;;;1.90;1.30;;;13.00;99.90;;;;;;5091087;28;20043;-82
2023/05/11 06:31:03;;;;;;;4.65;1.90;;;13.00;99.90;;;;;;5094651;28;20028;-82
2023/05/11 06:33:29;;;;;;;5.03;1.77;;;13.00;99.90;;;;;;5093370;28;20058;-82
2023/05/11 06:35:55;;;;;;;2.58;1.45;;;13.00;99.90;;;;;;5093263;28;20028;-81
2023/05/11 06:38:21;;;;;;;3.63;1.60;;;13.00;99.90;;;;;;5093089;28;20024;-83
2023/05/11 06:40:50;;;;;;;1.70;1.15;;;13.00;99.90;;;;;;5094387;28;20044;-82
2023/05/11 06:43:16;;;;;;;4.35;1.48;;;13.00;99.90;;;;;;5094032;28;20067;-82
2023/05/11 06:45:46;;;;;;;1.50;1.20;;;13.10;99.90;;;;;;5094428;28;20081;-82
2023/05/11 06:48:11;;;;;;;3.25;1.80;;;13.10;99.90;;;;;;5092907;28;20028;-82
2023/05/11 06:50:37;;;;;;;4.88;1.40;;;13.10;99.90;;;;;;5093063;28;20087;-82
2023/05/11 06:53:02;;;;;;;4.90;1.70;;;13.20;99.90;;;;;;5093318;28;20024;-82
2023/05/11 06:55:28;;;;;;;2.80;1.38;;;13.30;99.90;;;;;;5092904;28;20119;-82
2023/05/11 06:57:54;;;;;;;1.58;1.40;;;13.30;99.90;;;;;;5093221;28;20435;-82
2023/05/11 07:00:19;;;;;;;4.30;1.85;;;13.30;99.90;;;;;;5092285;28;20111;-81
2023/05/11 07:02:45;;;;;;;2.35;1.45;;;13.30;99.90;;;;;;5092600;28;20039;-82
2023/05/11 07:05:11;;;;;;;5.32;1.90;;;13.30;99.90;;;;;;5093241;28;20028;-82
2023/05/11 07:07:37;;;;;;;2.15;1.50;;;13.30;99.90;;;;;;5092566;28;20036;-83
2023/05/11 07:10:04;;;;;;;1.85;1.55;;;13.40;99.90;;;;;;5093230;28;20522;-83
2023/05/11 07:12:29;;;;;;;2.33;1.60;;;13.40;99.90;;;;;;5092952;28;20461;-83
2023/05/11 07:14:55;;;;;;;2.70;1.65;;;13.50;99.90;;;;;;5092601;28;20102;-82
2023/05/11 07:17:20;;;;;;;3.38;1.30;;;13.50;99.90;;;;;;5093538;28;20449;-83
2023/05/11 07:19:46;;;;;;;3.70;1.80;;;13.50;99.90;;;;;;5092513;28;20032;-83
2023/05/11 07:22:12;;;;;;;3.78;1.63;;;13.50;99.90;;;;;;5089110;28;20043;-83
2023/05/11 07:24:37;;;;;;;2.70;2.10;;;13.50;99.90;;;;;;5072744;28;20462;-81
2023/05/11 07:27:03;;;;;;;6.55;2.97;;;13.60;99.90;;;;;;5073626;28;20024;-81
2023/05/11 07:29:29;;;;;;;5.68;3.30;;;13.50;99.90;;;;;;5078638;28;20028;-82
2023/05/11 07:31:54;;;;;;;3.55;2.15;;;13.50;99.90;;;;;;5093032;28;20016;-82
2023/05/11 07:34:20;;;;;;;2.17;1.88;;;13.50;99.90;;;;;;5092158;28;20027;-83
2023/05/11 07:36:45;;;;;;;4.25;2.45;;;13.50;99.90;;;;;;5092888;28;20460;-82
2023/05/11 07:39:11;;;;;;;2.20;1.88;;;13.50;99.90;;;;;;5091784;28;20048;-84
2023/05/11 07:41:37;;;;;;;2.80;1.85;;;13.50;99.90;;;;;;5093775;28;20508;-83
2023/05/11 07:44:02;;;;;;;5.13;2.17;;;13.60;99.90;;;;;;5091457;28;20024;-92
2023/05/11 07:46:28;;;;;;;3.20;1.90;;;13.50;99.90;;;;;;5092238;28;20032;-87
2023/05/11 07:48:54;;;;;;;7.25;2.30;;;13.50;99.90;;;;;;5093021;28;20021;-87
2023/05/11 07:51:19;;;;;;;2.72;2.00;;;13.60;99.90;;;;;;5092122;28;20107;-86
2023/05/11 07:53:45;;;;;;;2.83;2.17;;;13.70;99.90;;;;;;5093596;28;20036;-86
2023/05/11 07:56:11;;;;;;;4.00;2.45;;;13.80;99.90;;;;;;5092038;28;20449;-89
2023/05/11 07:58:36;;;;;;;3.58;2.33;;;13.70;99.90;;;;;;5093662;28;20021;-89
2023/05/11 08:01:03;;;;;;;3.63;2.25;;;13.70;99.90;;;;;;5095643;28;20118;-87
2023/05/11 08:03:28;;;;;;;6.00;2.70;;;13.80;99.90;;;;;;5095389;28;20024;-87
2023/05/11 08:05:54;;;;;;;4.00;2.72;;;13.90;99.90;;;;;;5091597;28;20027;-93
2023/05/11 08:08:20;;;;;;;5.22;2.30;;;13.80;99.90;;;;;;5095905;28;20055;-82
2023/05/11 08:10:45;;;;;;;2.38;1.85;;;13.90;99.90;;;;;;5096335;28;20040;-82
2023/05/11 08:13:11;;;;;;;3.05;2.03;;;13.90;99.90;;;;;;5095415;28;20024;-83
2023/05/11 08:15:39;;;;;;;3.88;2.33;;;13.90;99.90;;;;;;5096631;28;20020;-86
2023/05/11 08:18:05;;;;;;;3.72;2.33;;;13.90;99.90;;;;;;5097408;28;20020;-88
2023/05/11 08:20:31;;;;;;;3.58;1.90;;;13.90;99.90;;;;;;5095970;28;20055;-89
2023/05/11 08:22:56;;;;;;;3.28;2.17;;;13.90;99.90;;;;;;5095587;28;20644;-83
2023/05/11 08:25:22;;;;;;;2.95;2.10;;;13.90;99.90;;;;;;5097193;28;20031;-83
2023/05/11 08:27:47;;;;;;;5.60;2.20;;;14.00;99.90;;;;;;5100580;28;20024;-85
2023/05/11 08:30:13;;;;;;;2.50;1.80;;;14.10;99.90;;;;;;5095647;28;20051;-85
2023/05/11 08:32:39;;;;;;;2.83;2.20;;;14.10;99.90;;;;;;5095169;28;20381;-86
2023/05/11 08:35:05;;;;;;;3.55;2.13;;;14.20;99.90;;;;;;5096102;28;20016;-86
2023/05/11 08:37:31;;;;;;;2.92;1.90;;;14.30;99.90;;;;;;5095533;28;20032;-84
2023/05/11 08:39:56;;;;;;;4.13;2.10;;;14.40;99.90;;;;;;5095023;28;20040;-86
2023/05/11 08:42:24;;;;;;;6.40;2.30;;;14.30;99.90;;;;;;5095513;28;20031;-86
2023/05/11 08:44:51;;;;;;;2.75;2.30;;;14.40;99.90;;;;;;5095637;28;20039;-91
2023/05/11 08:47:17;;;;;;;4.32;2.58;;;14.30;99.90;;;;;;5096477;28;20039;-89
2023/05/11 08:49:43;;;;;;;4.47;2.85;;;14.50;99.90;;;;;;5095678;28;20035;-86
2023/05/11 08:52:11;;;;;;;4.00;2.47;;;14.50;99.90;;;;;;5095228;28;20031;-86
2023/05/11 08:54:37;;;;;;;4.25;2.45;;;14.50;99.90;;;;;;5095122;28;20032;-87
2023/05/11 08:57:03;;;;;;;3.25;2.28;;;14.60;99.90;;;;;;5096575;28;20514;-87
2023/05/11 08:59:29;;;;;;;2.47;2.00;;;14.60;99.90;;;;;;5095074;28;20169;-87
2023/05/11 09:01:56;;;;;;;5.03;2.30;;;14.60;99.90;;;;;;5095238;28;20031;-82
2023/05/11 09:04:23;;;;;;;3.33;2.50;;;14.70;99.90;;;;;;5095899;28;20032;-85
2023/05/11 09:06:50;;;;;;;3.38;2.35;;;14.80;99.90;;;;;;5096531;28;20106;-87
2023/05/11 09:09:17;;;;;;;4.90;2.28;;;14.70;99.90;;;;;;5096065;28;20039;-86
2023/05/11 09:11:43;;;;;;;2.92;2.10;;;14.70;99.90;;;;;;5096215;28;20093;-84
2023/05/11 09:14:11;;;;;;;2.50;1.85;;;14.70;99.90;;;;;;5094481;28;20028;-85
2023/05/11 09:16:37;;;;;;;3.10;2.15;;;14.70;99.90;;;;;;5095037;28;20421;-83
2023/05/11 09:19:02;;;;;;;7.30;2.47;;;14.80;99.90;;;;;;5094800;28;20097;-82
2023/05/11 09:21:31;;;;;;;5.07;3.25;;;14.80;99.90;;;;;;5093647;28;20025;-82
2023/05/11 09:24:00;;;;;;;4.03;2.20;;;14.90;99.90;;;;;;5095148;28;20352;-83
2023/05/11 09:26:28;;;;;;;3.00;2.20;;;14.90;99.90;;;;;;5094538;28;20032;-84
2023/05/11 09:28:58;;;;;;;4.68;2.10;;;14.90;99.90;;;;;;5094358;28;20047;-82
2023/05/11 09:31:43;;;;;;;3.83;2.50;;;14.90;99.90;;;;;;5094078;28;20031;-81
2023/05/11 09:34:11;;;;;;;3.13;2.15;;;14.70;99.90;;;;;;5087557;28;20035;-87
2023/05/11 09:36:37;;;;;;;3.05;2.15;;;14.70;99.90;;;;;;5094535;28;20020;-84
2023/05/11 09:39:03;;;;;;;5.40;2.10;;;14.80;99.90;;;;;;5095634;28;20149;-85
2023/05/11 09:41:32;;;;;;;3.22;2.20;;;14.80;99.90;;;;;;5095421;28;20101;-84
2023/05/11 09:44:12;;;;;;;2.95;1.92;;;14.90;99.90;;;;;;5095483;28;20064;-84
2023/05/11 09:46:39;;;;;;;3.15;2.20;;;14.90;99.90;;;;;;5079424;28;20529;-84
2023/05/11 09:49:06;;;;;;;4.00;1.95;;;14.90;99.90;;;;;;5094921;28;20061;-84
2023/05/11 09:51:35;;;;;;;3.30;1.90;;;15.00;99.90;;;;;;5093879;28;20058;-82
2023/05/11 09:54:20;;;;;;;2.58;1.88;;;15.10;99.90;;;;;;5094530;28;20418;-87
2023/05/11 09:56:47;;;;;;;3.22;1.85;;;15.10;99.90;;;;;;5093438;28;20028;-85
2023/05/11 09:59:15;;;;;;;5.85;2.10;;;15.10;99.90;;;;;;5092924;28;20020;-86
2023/05/11 10:01:41;;;;;;;5.25;2.08;;;15.20;99.90;;;;;;5093162;28;20035;-85
2023/05/11 10:04:09;;;;;;;6.80;4.05;;;15.20;99.90;;;;;;5094226;28;20028;-83
2023/05/11 10:06:46;;;;;;;5.75;3.30;;;15.30;99.90;;;;;;5093507;28;20034;-82
2023/05/11 10:09:13;;;;;;;4.00;2.65;;;15.30;99.90;;;;;;5094241;28;20020;-84
2023/05/11 10:11:44;;;;;;;2.83;2.20;;;15.30;99.90;;;;;;5094688;28;20521;-85
2023/05/11 10:14:14;;;;;;;4.90;2.50;;;15.40;99.90;;;;;;5094110;28;20028;-84
2023/05/11 10:16:42;;;;;;;3.10;2.03;;;15.40;99.90;;;;;;5094942;28;20028;-84
2023/05/11 10:19:08;;;;;;;3.42;2.25;;;15.40;99.90;;;;;;5082507;28;20024;-86
2023/05/11 10:21:34;;;;;;;3.40;2.08;;;15.50;99.90;;;;;;5093085;28;20522;-84
2023/05/11 10:24:01;;;;;;;3.40;2.58;;;15.50;99.90;;;;;;5093517;28;20130;-83
2023/05/11 10:26:29;;;;;;;4.55;2.20;;;15.30;99.90;;;;;;5094153;28;20031;-82
2023/05/11 10:28:55;;;;;;;3.53;2.35;;;15.40;99.90;;;;;;5093237;28;20097;-83
2023/05/11 10:31:23;;;;;;;2.53;1.90;;;15.50;99.90;;;;;;5094327;28;20028;-84
2023/05/11 10:33:50;;;;;;;2.85;1.73;;;15.60;99.90;;;;;;5093074;28;20035;-80
2023/05/11 10:36:17;;;;;;;4.25;2.35;;;15.70;99.90;;;;;;5093563;28;20059;-87
2023/05/11 10:38:42;;;;;;;3.10;2.20;;;15.70;99.90;;;;;;5093416;28;20028;-87
2023/05/11 10:41:23;;;;;;;3.70;2.25;;;15.80;99.90;;;;;;5093261;28;20048;-88
2023/05/11 10:44:24;;;;;;;3.70;2.17;;;15.70;99.90;;;;;;5093592;28;20041;-88
2023/05/11 10:46:55;;;;;;;4.82;3.10;;;15.70;99.90;;;;;;5081401;28;20365;-86
2023/05/11 10:49:52;;;;;;;4.22;2.25;;;15.70;99.90;;;;;;5093178;28;20110;-87
2023/05/11 10:52:48;;;;;;;5.50;2.25;;;15.80;99.90;;;;;;5092893;28;20035;-87
2023/05/11 10:55:36;;;;;;;4.20;2.72;;;15.80;99.90;;;;;;5092863;28;20035;-85
2023/05/11 10:58:14;;;;;;;3.33;2.42;;;15.90;99.90;;;;;;5092510;28;20024;-88
2023/05/11 11:00:52;;;;;;;4.13;2.50;;;16.00;99.90;;;;;;5093009;28;20024;-88
2023/05/11 11:03:17;;;;;;;4.13;2.20;;;15.90;99.90;;;;;;5082493;28;20028;-91
2023/05/11 11:05:44;;;;;;;3.13;2.05;;;15.90;99.90;;;;;;5094014;28;20035;-89
2023/05/11 11:08:10;;;;;;;2.55;2.00;;;15.90;99.90;;;;;;5093039;28;20032;-92
2023/05/11 11:10:49;;;;;;;5.93;2.30;;;15.90;99.90;;;;;;5103121;28;20071;-88
2023/05/11 11:13:18;;;;;;;4.32;2.20;;;15.90;99.90;;;;;;5092985;28;20028;-89
2023/05/11 11:15:53;;;;;;;4.03;2.35;;;15.90;99.90;;;;;;5092745;28;20050;-89
2023/05/11 11:18:20;;;;;;;3.42;1.85;;;16.00;99.90;;;;;;5093880;28;20027;-88
2023/05/11 11:20:47;;;;;;;3.63;1.92;;;16.00;99.90;;;;;;5092618;28;20031;-88
2023/05/11 11:23:38;;;;;;;4.63;2.47;;;16.10;99.90;;;;;;5092622;28;20526;-87
2023/05/11 11:26:07;;;;;;;3.55;2.25;;;16.10;99.90;;;;;;5093214;28;20032;-94
2023/05/11 11:28:59;;;;;;;3.28;2.50;;;16.20;99.90;;;;;;5092580;28;20024;-89
2023/05/11 11:31:30;;;;;;;3.53;2.30;;;16.20;99.90;;;;;;5091670;28;20019;-86
2023/05/11 11:34:00;;;;;;;5.18;2.17;;;16.20;99.90;;;;;;5091893;28;20036;-89
2023/05/11 11:36:53;;;;;;;3.85;2.40;;;16.20;99.90;;;;;;5093133;28;20059;-89
2023/05/11 11:39:24;;;;;;;4.38;2.58;;;16.30;99.90;;;;;;5095901;28;20047;-90
2023/05/11 11:42:01;;;;;;;3.63;2.50;;;16.30;99.90;;;;;;5097925;28;20020;-88
2023/05/11 11:44:27;;;;;;;3.50;2.30;;;16.30;99.90;;;;;;5081321;28;20088;-87
2023/05/11 11:47:12;;;;;;;5.90;2.50;;;16.30;99.90;;;;;;5097150;28;20507;-88
2023/05/11 11:49:40;;;;;;;3.97;2.60;;;16.30;99.90;;;;;;5096891;28;20081;-95
2023/05/11 11:52:13;;;;;;;3.67;2.65;;;16.40;99.90;;;;;;5096897;28;20024;-93
2023/05/11 11:54:40;;;;;;;6.07;2.47;;;16.50;99.90;;;;;;5097157;28;20028;-94
2023/05/11 11:57:28;;;;;;;4.13;2.72;;;16.60;99.90;;;;;;5097800;28;20032;-94
2023/05/11 11:59:54;;;;;;;4.97;2.40;;;16.60;99.90;;;;;;5093744;28;20050;-94
2023/05/11 12:02:21;;;;;;;3.33;1.98;;;16.70;99.90;;;;;;5095948;28;20449;-93
2023/05/11 12:04:59;;;;;;;3.88;2.20;;;16.70;99.90;;;;;;5096377;28;20082;-93
2023/05/11 12:07:26;;;;;;;30.10;15.90;;;16.70;99.90;;;;;;5096235;28;20024;-94
2023/05/11 12:09:52;;;;;;;10.73;6.03;;;16.70;99.90;;;;;;5100866;28;20020;-94
2023/05/11 12:12:19;;;;;;;4.15;3.08;;;16.70;99.90;;;;;;5096159;28;20452;-87
2023/05/11 12:14:47;;;;;;;4.65;3.10;;;16.70;99.90;;;;;;5096470;28;20032;-94
2023/05/11 12:17:15;;;;;;;4.57;2.72;;;16.70;99.90;;;;;;5096861;28;20474;-86
2023/05/11 12:19:45;;;;;;;3.25;2.63;;;16.90;99.90;;;;;;5096195;28;20036;-92
2023/05/11 12:22:13;;;;;;;3.78;2.28;;;16.90;99.90;;;;;;5095985;28;20699;-88
2023/05/11 12:24:40;;;;;;;3.45;2.38;;;17.00;99.90;;;;;;5096208;28;20055;-87
2023/05/11 12:27:05;;;;;;;2.35;2.00;;;17.20;99.90;;;;;;5096958;28;20021;-85
2023/05/11 12:29:31;;;;;;;2.63;2.20;;;17.30;99.90;;;;;;5095550;28;20026;-83
2023/05/11 12:31:57;;;;;;;3.88;1.85;;;17.30;99.90;;;;;;5095907;28;20059;-82
2023/05/11 12:34:23;;;;;;;3.28;2.22;;;17.40;99.90;;;;;;5095274;28;20081;-82
2023/05/11 12:36:51;;;;;;;3.38;2.10;;;17.50;99.90;;;;;;5095645;28;20024;-82
2023/05/11 12:39:21;;;;;;;2.95;1.83;;;17.60;99.90;;;;;;5094752;28;20123;-84
2023/05/11 12:41:48;;;;;;;3.00;2.13;;;17.70;99.90;;;;;;5094946;28;20032;-85
2023/05/11 12:44:15;;;;;;;2.30;1.95;;;17.70;99.90;;;;;;5093859;28;20031;-88
2023/05/11 12:46:42;;;;;;;3.10;2.10;;;17.70;99.90;;;;;;5095902;28;20027;-84
2023/05/11 12:49:08;;;;;;;1.83;1.45;;;17.80;99.90;;;;;;5096653;28;20020;-84